Time;durP1;ratioP1;P1;durP2;ratioP2;P2;SDS_P1;SDS_P2;PMS_P1;PMS_P2;Temp;Humidity;BMP_temperature;BMP_pressure;BME280_temperature;BME280_humidity;BME280_pressure;Samples;Min_cycle;Max_cycle;Signal;HPM_P1;HPM_P2
2022/01/14 00:02:04;;;;;;;18.15;13.68;;;;;;;-1.11;63.91;95086.23;1718022;81;21144;-60
2022/01/14 00:04:32;;;;;;;17.40;12.15;;;;;;;-1.08;63.82;95094.17;1740290;81;21148;-59
2022/01/14 00:06:58;;;;;;;17.52;12.40;;;;;;;-1.05;64.29;95096.14;1736234;81;20938;-59
2022/01/14 00:09:25;;;;;;;20.37;13.22;;;;;;;-1.03;64.29;95081.15;1727898;81;20981;-59
2022/01/14 00:11:59;;;;;;;20.43;15.20;;;;;;;-1.00;64.15;95079.66;1749187;82;21015;-59
2022/01/14 00:14:40;;;;;;;16.23;11.85;;;;;;;-1.02;64.11;95071.91;1681582;82;21035;-60
2022/01/14 00:17:10;;;;;;;20.20;13.62;;;;;;;-1.05;64.13;95072.64;1687303;83;21179;-62
2022/01/14 00:19:37;;;;;;;18.07;14.68;;;;;;;-1.07;64.17;95062.78;1676356;83;21010;-58
2022/01/14 00:22:10;;;;;;;17.32;13.05;;;;;;;-1.04;64.29;95069.36;1715575;82;21080;-58
2022/01/14 00:35:30;;;;;;;18.48;12.45;;;;;;;-1.03;64.33;95049.31;1691849;83;21030;-61
2022/01/14 00:38:00;;;;;;;20.12;15.03;;;;;;;-1.02;64.36;95045.47;1678978;82;21104;-59
2022/01/14 00:40:27;;;;;;;21.20;14.38;;;;;;;-1.02;64.13;95045.47;1703904;83;21034;-60
2022/01/14 00:42:54;;;;;;;23.70;16.30;;;;;;;-1.03;64.09;95066.30;1735013;82;21141;-59
2022/01/14 00:45:21;;;;;;;19.67;13.28;;;;;;;-1.03;64.19;95020.97;1741700;81;21511;-58
2022/01/14 00:47:48;;;;;;;19.15;12.82;;;;;;;-1.04;64.32;95022.91;1733486;81;21145;-60
2022/01/14 00:50:18;;;;;;;21.33;16.48;;;;;;;-1.04;64.33;95021.55;1725276;81;21136;-60
2022/01/14 00:52:45;;;;;;;22.00;14.23;;;;;;;-1.03;64.30;95024.45;1750955;81;20943;-59
2022/01/14 00:55:17;;;;;;;21.93;14.53;;;;;;;-1.04;64.28;95026.16;1745632;81;21122;-60
2022/01/14 01:00:33;;;;;;;22.37;15.03;;;;;;;-1.07;64.55;95017.45;1734893;81;21074;-58
2022/01/14 01:03:01;;;;;;;21.90;14.43;;;;;;;-1.09;64.53;95007.59;1688040;82;21063;-58
2022/01/14 01:05:28;;;;;;;19.60;14.33;;;;;;;-1.12;64.54;95008.34;1665754;85;21740;-59
2022/01/14 01:08:04;;;;;;;20.43;13.70;;;;;;;-1.12;64.59;95012.39;1661771;85;21161;-60
2022/01/14 01:10:24;;;;;;;17.57;13.98;;;;;;;-1.16;64.66;95006.17;1633626;86;21070;-58
2022/01/14 01:13:09;;;;;;;19.02;13.55;;;;;;;-1.18;64.87;94997.67;1656023;85;20975;-59
2022/01/14 01:15:26;;;;;;;19.87;14.73;;;;;;;-1.22;64.99;95023.80;1637327;85;21057;-59
2022/01/14 01:17:53;;;;;;;21.82;14.07;;;;;;;-1.22;65.12;94988.17;1644625;85;21089;-58
2022/01/14 01:20:21;;;;;;;20.68;14.58;;;;;;;-1.23;65.08;94995.27;1588683;86;21140;-58
2022/01/14 01:22:51;;;;;;;18.05;13.60;;;;;;;-1.24;65.04;94995.86;1609052;87;21037;-59
2022/01/14 01:25:23;;;;;;;20.55;14.70;;;;;;;-1.27;64.95;95011.99;1631402;86;21089;-57
2022/01/14 01:27:50;;;;;;;21.42;14.58;;;;;;;-1.30;65.02;95000.58;1640102;84;21587;-59
2022/01/14 01:30:48;;;;;;;17.02;13.98;;;;;;;-1.34;65.38;95002.47;1719542;81;21010;-59
2022/01/14 01:32:50;;;;;;;17.48;14.33;;;;;;;-1.38;65.35;94992.17;1704190;82;21167;-59
2022/01/14 01:35:17;;;;;;;20.12;14.75;;;;;;;-1.42;65.54;95008.89;1732477;81;21014;-59
2022/01/14 01:37:43;;;;;;;21.97;14.55;;;;;;;-1.44;65.63;94986.90;1738494;81;21499;-57
2022/01/14 01:40:14;;;;;;;18.85;13.78;;;;;;;-1.47;65.74;95007.28;1731341;82;21016;-59
2022/01/14 01:42:44;;;;;;;19.45;14.00;;;;;;;-1.47;65.92;95003.82;1706497;81;21522;-57
2022/01/14 01:45:15;;;;;;;19.02;13.88;;;;;;;-1.43;65.89;94999.25;1712284;81;21786;-59
2022/01/14 01:47:44;;;;;;;18.92;13.85;;;;;;;-1.40;65.77;95002.55;1711053;81;21520;-58
2022/01/14 01:50:13;;;;;;;17.45;12.40;;;;;;;-1.38;65.68;95001.61;1719770;81;21114;-58
2022/01/14 01:52:40;;;;;;;22.90;13.13;;;;;;;-1.42;65.75;94988.10;1696192;83;21078;-58
2022/01/14 01:55:08;;;;;;;18.45;13.72;;;;;;;-1.38;65.58;94996.22;1682945;84;21036;-58
2022/01/14 01:57:41;;;;;;;17.87;12.78;;;;;;;-1.36;65.65;94981.82;1696645;83;21769;-59
2022/01/14 02:00:09;;;;;;;18.27;14.23;;;;;;;-1.37;65.73;94981.03;1679748;83;21563;-59
2022/01/14 02:02:38;;;;;;;19.15;12.85;;;;;;;-1.38;65.67;94983.52;1707007;82;20953;-58
2022/01/14 02:05:07;;;;;;;19.15;14.75;;;;;;;-1.40;65.95;94985.02;1662074;85;21040;-59
2022/01/14 02:07:34;;;;;;;19.10;14.70;;;;;;;-1.45;66.22;94979.95;1679280;83;21120;-59
2022/01/14 02:10:02;;;;;;;19.07;13.65;;;;;;;-1.48;66.45;94973.94;1691497;82;22273;-58
2022/01/14 02:12:39;;;;;;;23.02;14.73;;;;;;;-1.47;66.52;94960.66;1734785;81;21003;-59
2022/01/14 02:15:12;;;;;;;19.65;12.85;;;;;;;-1.47;66.78;94974.15;1712879;82;21001;-58
2022/01/14 02:18:12;;;;;;;15.80;12.88;;;;;;;-1.44;66.69;94982.30;1736414;81;20994;-60
2022/01/14 02:22:55;;;;;;;18.77;13.38;;;;;;;-1.33;66.62;94982.44;1750663;82;21168;-58
2022/01/14 02:25:30;;;;;;;32.48;20.45;;;;;;;-1.26;66.41;94973.07;1750822;81;21504;-59
2022/01/14 02:28:10;;;;;;;18.55;13.20;;;;;;;-1.18;66.36;94959.30;1752385;80;21525;-58
2022/01/14 02:30:40;;;;;;;25.25;16.50;;;;;;;-1.12;66.02;94948.95;1758346;80;20938;-59
2022/01/14 02:33:09;;;;;;;24.98;15.55;;;;;;;-1.12;65.97;94953.77;1723423;81;21011;-59
2022/01/14 02:35:39;;;;;;;17.85;15.00;;;;;;;-1.14;66.00;94955.30;1753185;80;21232;-58
2022/01/14 02:38:08;;;;;;;21.87;15.72;;;;;;;-1.19;66.14;94945.59;1702496;81;21076;-58
2022/01/14 02:40:36;;;;;;;22.37;15.00;;;;;;;-1.26;66.47;94952.83;1714685;81;20967;-59
2022/01/14 02:43:12;;;;;;;25.75;17.75;;;;;;;-1.25;66.67;94940.89;1715231;82;21071;-59
2022/01/14 02:45:35;;;;;;;24.37;16.20;;;;;;;-1.24;66.85;94938.40;1715495;81;21445;-58
2022/01/14 02:48:04;;;;;;;17.85;14.00;;;;;;;-1.22;66.95;94929.36;1722755;82;21181;-58
2022/01/14 02:50:38;;;;;;;24.00;16.35;;;;;;;-1.21;66.92;94945.75;1715689;82;21008;-59
2022/01/14 02:53:01;;;;;;;16.62;13.38;;;;;;;-1.20;66.92;94929.77;1729405;80;21175;-59
2022/01/14 02:55:31;;;;;;;20.75;16.10;;;;;;;-1.21;67.02;94920.91;1721801;81;21094;-58
2022/01/14 02:57:58;;;;;;;22.30;14.65;;;;;;;-1.18;67.00;94939.05;1717219;82;21109;-58
2022/01/14 03:00:30;;;;;;;26.20;15.78;;;;;;;-1.17;66.97;94920.95;1724597;81;22272;-57
2022/01/14 03:02:59;;;;;;;16.82;13.83;;;;;;;-1.14;67.02;94922.91;1697348;80;25173;-58
2022/01/14 03:05:30;;;;;;;17.90;13.48;;;;;;;-1.16;67.05;94911.72;1711449;82;20962;-59
2022/01/14 03:08:00;;;;;;;16.97;13.95;;;;;;;-1.16;67.17;94913.06;1714644;80;21549;-61
2022/01/14 03:10:26;;;;;;;19.17;14.73;;;;;;;-1.15;67.17;94920.77;1712033;80;21076;-58
2022/01/14 03:12:55;;;;;;;18.52;14.07;;;;;;;-1.15;67.25;94885.69;1704070;81;21217;-58
2022/01/14 03:15:25;;;;;;;17.25;13.72;;;;;;;-1.12;67.16;94885.53;1718042;82;21459;-58
2022/01/14 03:17:53;;;;;;;16.50;12.90;;;;;;;-1.12;67.36;94887.64;1766856;80;21065;-60
2022/01/14 03:21:09;;;;;;;15.63;13.08;;;;;;;-1.10;67.43;94871.09;1770812;80;21004;-59
2022/01/14 03:23:05;;;;;;;16.60;12.25;;;;;;;-1.09;67.44;94862.64;1727182;80;20938;-59
2022/01/14 03:28:12;;;;;;;14.98;12.25;;;;;;;-1.03;67.50;94846.86;1726766;81;21551;-58
2022/01/14 03:30:41;;;;;;;17.25;13.50;;;;;;;-0.95;67.43;94855.25;1700720;83;21532;-58
2022/01/14 03:33:09;;;;;;;17.70;12.78;;;;;;;-0.85;67.01;94855.91;1682134;83;21018;-58
2022/01/14 03:35:36;;;;;;;16.77;13.35;;;;;;;-0.80;66.96;94865.03;1704645;81;21075;-58
2022/01/14 03:38:02;;;;;;;15.65;13.45;;;;;;;-0.81;66.83;94848.05;1731062;81;21491;-59
2022/01/14 03:40:30;;;;;;;15.90;12.82;;;;;;;-0.78;66.83;94846.53;1740823;81;21057;-59
2022/01/14 03:42:57;;;;;;;15.20;12.68;;;;;;;-0.76;66.77;94841.53;1705522;82;21006;-59
2022/01/14 03:45:24;;;;;;;15.83;11.95;;;;;;;-0.78;66.81;94866.20;1697808;82;21095;-57
2022/01/14 03:47:52;;;;;;;17.50;14.15;;;;;;;-0.79;66.92;94832.24;1726673;82;21670;-57
2022/01/14 03:50:19;;;;;;;16.25;13.38;;;;;;;-0.79;67.00;94849.03;1727409;82;21838;-57
2022/01/14 03:52:46;;;;;;;16.15;13.03;;;;;;;-0.79;67.02;94834.19;1705794;82;20967;-59
2022/01/14 03:55:14;;;;;;;16.40;13.18;;;;;;;-0.78;67.14;94845.95;1705201;82;21519;-58
2022/01/14 03:57:41;;;;;;;15.15;12.50;;;;;;;-0.74;67.04;94841.94;1712747;81;21081;-57
2022/01/14 04:00:11;;;;;;;14.55;11.08;;;;;;;-0.74;66.95;94856.20;1740855;81;21120;-59
2022/01/14 04:02:43;;;;;;;17.12;12.33;;;;;;;-0.71;66.99;94837.13;1726361;82;21840;-58
2022/01/14 04:05:12;;;;;;;12.75;11.33;;;;;;;-0.68;66.89;94861.48;1736610;81;21035;-59
2022/01/14 04:07:39;;;;;;;14.00;10.98;;;;;;;-0.65;66.89;94872.09;1745818;81;21002;-57
2022/01/14 04:10:10;;;;;;;14.43;11.90;;;;;;;-0.65;66.88;94851.27;1746859;81;21495;-57
2022/01/14 04:12:52;;;;;;;17.48;12.25;;;;;;;-0.65;66.89;94847.78;1725668;81;21114;-58
2022/01/14 04:18:13;;;;;;;14.75;11.93;;;;;;;-0.64;67.08;94854.17;1699043;82;21001;-59
2022/01/14 04:20:43;;;;;;;14.00;11.53;;;;;;;-0.60;67.03;94831.25;1739971;81;21018;-58
2022/01/14 04:23:14;;;;;;;17.50;12.88;;;;;;;-0.59;66.90;94841.67;1739780;82;20957;-58
2022/01/14 04:25:41;;;;;;;12.90;11.45;;;;;;;-0.57;66.96;94831.85;1731547;81;21550;-58
2022/01/14 04:28:10;;;;;;;17.15;11.78;;;;;;;-0.56;66.99;94825.30;1742828;80;21201;-58
2022/01/14 04:30:38;;;;;;;14.75;10.80;;;;;;;-0.54;66.93;94824.34;1765992;80;20948;-58
2022/01/14 04:33:04;;;;;;;12.35;11.15;;;;;;;-0.52;66.95;94823.39;1750900;80;21290;-58
2022/01/14 04:35:32;;;;;;;15.25;12.37;;;;;;;-0.49;66.80;94818.02;1738748;80;21505;-58
2022/01/14 04:37:59;;;;;;;15.68;12.80;;;;;;;-0.48;66.70;94809.33;1753917;80;21521;-59
2022/01/14 04:40:26;;;;;;;15.05;10.72;;;;;;;-0.48;66.80;94822.84;1748349;80;21227;-62
2022/01/14 04:42:54;;;;;;;12.98;10.58;;;;;;;-0.46;66.70;94808.38;1719979;82;21148;-58
2022/01/14 04:48:06;;;;;;;17.10;12.15;;;;;;;-0.41;66.65;94814.20;1703778;81;21115;-58
2022/01/14 04:50:34;;;;;;;12.35;11.05;;;;;;;-0.42;66.61;94793.74;1709305;81;21445;-57
2022/01/14 04:53:01;;;;;;;14.40;10.68;;;;;;;-0.43;66.74;94791.44;1708375;82;21138;-59
2022/01/14 04:55:27;;;;;;;13.50;11.40;;;;;;;-0.41;66.79;94791.23;1716460;82;21078;-57
2022/01/14 04:57:55;;;;;;;14.47;11.40;;;;;;;-0.37;66.67;94782.57;1716052;81;21573;-58
2022/01/14 05:00:24;;;;;;;12.07;10.75;;;;;;;-0.36;66.72;94782.80;1725608;81;21005;-60
2022/01/14 05:02:54;;;;;;;14.73;11.85;;;;;;;-0.35;66.79;94782.20;1728825;81;21046;-60
2022/01/14 05:05:27;;;;;;;18.15;13.00;;;;;;;-0.36;66.88;94773.91;1729582;81;21911;-59
2022/01/14 05:07:54;;;;;;;17.60;11.97;;;;;;;-0.34;67.05;94780.50;1742284;81;21067;-60
2022/01/14 05:12:57;;;;;;;14.78;12.10;;;;;;;-0.32;67.19;94774.70;1739315;82;21126;-61
2022/01/14 05:15:24;;;;;;;12.90;11.03;;;;;;;-0.30;67.25;94774.53;1730431;82;20991;-58
2022/01/14 05:17:51;;;;;;;12.78;11.18;;;;;;;-0.27;67.24;94767.58;1720436;82;21152;-59
2022/01/14 05:20:20;;;;;;;12.80;10.32;;;;;;;-0.26;67.22;94754.29;1692687;83;21105;-61
2022/01/14 05:22:47;;;;;;;14.20;11.50;;;;;;;-0.21;67.21;94751.98;1680757;83;21526;-61
2022/01/14 05:25:14;;;;;;;12.43;10.70;;;;;;;-0.19;67.08;94755.07;1681557;83;21136;-60
2022/01/14 05:27:43;;;;;;;16.95;12.47;;;;;;;-0.19;67.11;94732.09;1689134;83;21052;-62
2022/01/14 05:30:13;;;;;;;15.45;11.93;;;;;;;-0.17;67.05;94734.44;1683928;81;21801;-63
2022/01/14 05:32:48;;;;;;;14.05;10.50;;;;;;;-0.19;67.11;94744.85;1739865;81;21042;-60
2022/01/14 05:35:21;;;;;;;15.08;12.55;;;;;;;-0.25;67.30;94739.62;1711857;82;32822;-61
2022/01/14 05:37:48;;;;;;;15.32;12.00;;;;;;;-0.17;67.19;94720.92;1689791;82;21051;-60
2022/01/14 05:40:14;;;;;;;16.05;12.03;;;;;;;-0.21;67.21;94733.65;1728436;82;21020;-62
2022/01/14 05:42:42;;;;;;;16.17;12.43;;;;;;;-0.25;67.36;94726.11;1731686;80;21741;-61
2022/01/14 05:45:11;;;;;;;17.52;13.15;;;;;;;-0.29;67.54;94721.23;1730970;81;20941;-59
2022/01/14 05:47:39;;;;;;;17.90;11.12;;;;;;;-0.33;67.66;94719.10;1739177;81;20952;-59
2022/01/14 05:50:19;;;;;;;13.40;11.48;;;;;;;-0.39;68.02;94731.43;1738017;81;20976;-60
2022/01/14 05:52:46;;;;;;;15.18;12.07;;;;;;;-0.40;68.15;94737.40;1723223;81;21074;-57
2022/01/14 05:55:16;;;;;;;17.42;12.07;;;;;;;-0.36;68.22;94711.75;1766034;80;21529;-59
2022/01/14 05:57:43;;;;;;;13.65;10.95;;;;;;;-0.36;68.29;94713.11;1763797;80;21014;-57
2022/01/14 06:00:16;;;;;;;14.03;11.00;;;;;;;-0.35;68.31;94718.70;1750358;80;21029;-58
2022/01/14 06:02:46;;;;;;;16.05;11.88;;;;;;;-0.33;68.33;94705.59;1737945;82;21005;-57
2022/01/14 06:05:16;;;;;;;17.57;11.80;;;;;;;-0.27;68.16;94708.12;1724637;82;21075;-63
2022/01/14 06:07:44;;;;;;;16.73;13.05;;;;;;;-0.26;68.11;94692.12;1672489;84;21129;-61
2022/01/14 06:10:12;;;;;;;16.75;12.23;;;;;;;-0.26;67.90;94698.89;1701828;82;21090;-62
2022/01/14 06:12:38;;;;;;;15.98;12.23;;;;;;;-0.29;67.99;94699.62;1694508;83;21207;-62
2022/01/14 06:15:08;;;;;;;15.78;11.90;;;;;;;-0.31;68.13;94704.63;1679333;83;21029;-62
2022/01/14 06:17:36;;;;;;;15.60;11.70;;;;;;;-0.30;68.15;94692.66;1715491;81;21062;-63
2022/01/14 06:20:05;;;;;;;14.93;12.47;;;;;;;-0.25;68.06;94704.48;1731836;82;21057;-62
2022/01/14 06:22:31;;;;;;;15.80;11.75;;;;;;;-0.21;67.65;94698.52;1733772;80;21059;-64
2022/01/14 06:25:00;;;;;;;15.28;11.60;;;;;;;-0.22;67.64;94696.37;1730992;80;20988;-63
2022/01/14 06:27:27;;;;;;;12.40;10.75;;;;;;;-0.19;67.65;94686.73;1722592;80;21044;-62
2022/01/14 06:29:54;;;;;;;18.02;12.55;;;;;;;-0.20;67.44;94678.44;1704782;82;21054;-63
2022/01/14 06:32:20;;;;;;;19.02;12.18;;;;;;;-0.19;67.33;94697.55;1696674;82;21211;-63
2022/01/14 06:34:52;;;;;;;15.15;11.88;;;;;;;-0.19;67.27;94674.58;1674954;83;21568;-63
2022/01/14 06:37:18;;;;;;;16.85;12.10;;;;;;;-0.18;66.95;94663.40;1719488;82;21576;-63
2022/01/14 06:39:51;;;;;;;19.98;14.03;;;;;;;-0.15;66.77;94672.66;1712869;82;21063;-67
2022/01/14 06:42:17;;;;;;;15.38;11.73;;;;;;;-0.10;66.70;94668.23;1714940;81;21152;-71
2022/01/14 06:44:44;;;;;;;14.00;10.82;;;;;;;-0.07;66.52;94670.95;1727870;81;21513;-61
2022/01/14 06:47:11;;;;;;;15.25;12.05;;;;;;;-0.04;66.35;94642.39;1736949;81;21532;-62
2022/01/14 06:49:43;;;;;;;14.10;11.75;;;;;;;0.00;66.13;94654.77;1741544;81;21013;-63
2022/01/14 06:52:10;;;;;;;14.43;10.75;;;;;;;0.08;65.87;94671.20;1704681;82;21435;-63
2022/01/14 06:54:37;;;;;;;14.95;11.73;;;;;;;0.13;65.41;94650.53;1716502;80;21484;-65
2022/01/14 06:57:05;;;;;;;14.58;11.63;;;;;;;0.19;65.29;94665.25;1725637;80;21060;-64
2022/01/14 06:59:32;;;;;;;15.48;11.85;;;;;;;0.26;64.93;94662.55;1732279;81;21125;-63
2022/01/14 07:01:59;;;;;;;16.82;12.10;;;;;;;0.32;64.90;94659.08;1688705;81;21139;-65
2022/01/14 07:04:26;;;;;;;15.58;11.48;;;;;;;0.39;64.35;94656.38;1731010;80;21084;-66
2022/01/14 07:06:56;;;;;;;13.38;10.78;;;;;;;0.45;64.17;94644.60;1739272;80;21019;-61
2022/01/14 07:09:25;;;;;;;15.35;10.38;;;;;;;0.51;63.90;94657.36;1725675;81;21114;-66
2022/01/14 07:11:56;;;;;;;12.50;10.53;;;;;;;0.55;63.65;94655.43;1696653;82;21082;-60
2022/01/14 07:14:25;;;;;;;15.28;11.38;;;;;;;0.58;63.62;94676.30;1705540;80;21045;-60
2022/01/14 07:16:52;;;;;;;14.70;12.30;;;;;;;0.62;63.61;94649.25;1711083;82;21625;-64
2022/01/14 07:19:22;;;;;;;15.55;11.08;;;;;;;0.69;63.46;94648.67;1683600;82;21056;-65
2022/01/14 07:21:52;;;;;;;17.00;13.00;;;;;;;0.76;63.22;94664.15;1708140;80;21150;-67
2022/01/14 07:24:22;;;;;;;14.70;11.60;;;;;;;0.85;62.90;94665.31;1720249;80;21063;-63
2022/01/14 07:26:52;;;;;;;19.50;13.35;;;;;;;0.92;62.89;94661.23;1697836;82;21575;-65
2022/01/14 07:29:19;;;;;;;13.83;9.78;;;;;;;0.98;62.75;94642.67;1695835;82;21667;-64
2022/01/14 07:31:51;;;;;;;13.22;10.43;;;;;;;1.05;62.52;94648.85;1729733;80;21412;-66
2022/01/14 07:34:18;;;;;;;12.10;10.32;;;;;;;1.11;62.39;94651.95;1708608;80;21512;-65
2022/01/14 07:36:44;;;;;;;12.15;10.70;;;;;;;1.10;62.29;94643.03;1703737;82;21180;-64
2022/01/14 07:39:11;;;;;;;16.07;10.80;;;;;;;1.13;62.33;94641.49;1703301;80;21070;-65
2022/01/14 07:41:38;;;;;;;12.33;10.72;;;;;;;1.17;62.33;94630.82;1710816;81;21683;-64
2022/01/14 07:44:07;;;;;;;13.05;10.78;;;;;;;1.17;62.25;94628.11;1732157;80;22319;-67
2022/01/14 07:46:35;;;;;;;16.07;11.85;;;;;;;1.20;62.59;94627.92;1734610;80;21168;-66
2022/01/14 07:49:02;;;;;;;14.05;11.18;;;;;;;1.23;62.55;94615.73;1724636;80;21167;-66
2022/01/14 07:51:29;;;;;;;13.25;10.58;;;;;;;1.30;62.56;94600.80;1700709;81;22109;-66
2022/01/14 07:53:58;;;;;;;12.82;10.25;;;;;;;1.41;62.39;94600.77;1712633;81;21479;-65
2022/01/14 07:56:25;;;;;;;13.03;10.78;;;;;;;1.47;62.03;94617.59;1709307;81;21544;-64
2022/01/14 07:58:55;;;;;;;12.10;10.15;;;;;;;1.50;61.92;94610.02;1720327;80;21813;-64
2022/01/14 08:01:21;;;;;;;14.58;11.30;;;;;;;1.54;61.90;94595.88;1712958;81;20981;-66
2022/01/14 08:03:48;;;;;;;14.20;11.65;;;;;;;1.58;62.08;94595.30;1736999;80;20917;-71
2022/01/14 08:06:15;;;;;;;14.73;12.23;;;;;;;1.63;62.08;94603.02;1712096;80;21032;-64
2022/01/14 08:08:43;;;;;;;15.20;11.73;;;;;;;1.69;61.88;94591.94;1735062;81;21043;-62
2022/01/14 08:11:10;;;;;;;13.05;10.18;;;;;;;1.75;61.83;94595.20;1723325;81;21193;-63
2022/01/14 08:13:37;;;;;;;10.98;9.73;;;;;;;1.83;61.44;94594.59;1714214;81;21009;-62
2022/01/14 08:16:05;;;;;;;13.70;10.45;;;;;;;1.91;61.58;94598.80;1730408;81;21621;-68
2022/01/14 08:18:32;;;;;;;12.43;11.12;;;;;;;2.00;61.38;94596.44;1732724;80;21110;-63
2022/01/14 08:20:59;;;;;;;11.78;10.48;;;;;;;2.06;61.16;94586.71;1705287;81;21087;-67
2022/01/14 08:23:26;;;;;;;12.53;10.10;;;;;;;2.11;61.26;94595.81;1671486;82;21148;-67
2022/01/14 08:25:55;;;;;;;10.55;9.30;;;;;;;2.19;61.11;94589.95;1719192;81;21005;-69
2022/01/14 08:28:21;;;;;;;11.60;9.30;;;;;;;2.30;60.63;94589.27;1722489;81;21045;-61
2022/01/14 08:30:52;;;;;;;10.82;9.40;;;;;;;2.43;60.23;94601.78;1742345;81;21029;-64
2022/01/14 08:33:19;;;;;;;12.43;9.35;;;;;;;2.52;59.87;94607.55;1742019;80;21486;-67
2022/01/14 08:35:48;;;;;;;11.00;9.83;;;;;;;2.63;59.72;94570.99;1724528;80;21948;-65
2022/01/14 08:38:18;;;;;;;11.65;9.60;;;;;;;2.74;59.64;94582.55;1729202;81;21074;-69
2022/01/14 08:40:46;;;;;;;12.20;10.40;;;;;;;2.90;58.96;94572.50;1722807;79;20994;-65
2022/01/14 08:43:13;;;;;;;11.88;10.10;;;;;;;3.00;58.90;94570.26;1695956;82;21008;-63
2022/01/14 08:45:41;;;;;;;12.30;10.15;;;;;;;3.14;58.12;94564.69;1747353;80;21049;-65
2022/01/14 08:48:07;;;;;;;14.73;10.93;;;;;;;3.21;58.25;94560.56;1718204;80;21792;-65
2022/01/14 08:50:37;;;;;;;13.80;11.18;;;;;;;3.23;57.73;94562.28;1712523;80;21049;-66
2022/01/14 08:53:05;;;;;;;14.40;10.20;;;;;;;3.26;57.91;94565.55;1722508;80;21136;-66
2022/01/14 08:55:34;;;;;;;11.50;9.73;;;;;;;3.29;57.73;94572.88;1713837;80;21432;-66
2022/01/14 08:58:04;;;;;;;17.75;13.25;;;;;;;3.31;57.44;94555.00;1724448;81;21505;-66
2022/01/14 09:00:32;;;;;;;15.75;11.90;;;;;;;3.38;57.28;94563.67;1716256;80;21167;-65
2022/01/14 09:03:03;;;;;;;13.62;10.50;;;;;;;3.47;57.00;94553.85;1736845;80;21430;-65
2022/01/14 09:05:30;;;;;;;10.50;9.20;;;;;;;3.61;56.48;94548.22;1696491;82;21105;-64
2022/01/14 09:07:58;;;;;;;12.47;9.95;;;;;;;3.73;56.33;94564.77;1662689;84;21107;-70
2022/01/14 09:10:26;;;;;;;13.22;10.58;;;;;;;3.87;55.86;94534.66;1678446;83;21371;-70
2022/01/14 09:12:52;;;;;;;17.15;10.70;;;;;;;4.09;55.45;94541.34;1668941;83;21146;-64
2022/01/14 09:15:19;;;;;;;17.05;11.48;;;;;;;4.31;54.57;94516.73;1664595;83;21538;-64
2022/01/14 09:17:46;;;;;;;15.72;11.85;;;;;;;4.35;54.49;94513.36;1687266;83;20990;-68
2022/01/14 09:20:15;;;;;;;15.40;11.73;;;;;;;4.41;54.57;94512.30;1670967;83;21050;-68
2022/01/14 09:22:48;;;;;;;15.65;11.20;;;;;;;4.49;54.39;94519.17;1689823;83;21108;-66
2022/01/14 09:25:11;;;;;;;16.32;11.65;;;;;;;4.56;54.35;94516.31;1693542;83;21149;-66
2022/01/14 09:27:38;;;;;;;16.17;11.65;;;;;;;4.81;53.73;94501.09;1708162;82;21043;-68
2022/01/14 09:30:08;;;;;;;12.37;9.68;;;;;;;5.16;53.00;94496.97;1703286;82;21053;-65
2022/01/14 09:32:36;;;;;;;12.55;10.10;;;;;;;5.51;51.81;94494.31;1695224;82;21106;-66
2022/01/14 09:35:06;;;;;;;11.20;9.88;;;;;;;5.85;50.87;94503.77;1683545;82;21065;-68
2022/01/14 09:37:32;;;;;;;15.63;11.50;;;;;;;5.99;50.35;94500.70;1693848;83;21908;-63
2022/01/14 09:40:00;;;;;;;15.05;11.78;;;;;;;5.97;50.47;94491.42;1672903;83;21106;-66
2022/01/14 09:42:27;;;;;;;16.67;12.47;;;;;;;5.99;50.27;94485.69;1656251;83;21117;-63
2022/01/14 09:44:55;;;;;;;16.62;11.83;;;;;;;6.17;50.12;94474.38;1695562;82;21487;-64
2022/01/14 09:47:22;;;;;;;12.47;9.68;;;;;;;6.36;49.80;94489.94;1677039;83;21581;-66
2022/01/14 09:49:51;;;;;;;15.68;10.85;;;;;;;6.41;48.70;94485.31;1677444;83;21137;-62
2022/01/14 09:52:18;;;;;;;17.37;12.68;;;;;;;6.41;48.92;94477.91;1696649;83;21062;-65
2022/01/14 09:54:47;;;;;;;17.25;11.60;;;;;;;6.47;49.06;94475.41;1694808;83;22007;-59
2022/01/14 09:57:15;;;;;;;12.25;9.90;;;;;;;6.73;48.34;94483.95;1683202;82;22337;-64
2022/01/14 09:59:43;;;;;;;13.40;9.88;;;;;;;7.07;47.50;94479.53;1725998;81;21240;-61
2022/01/14 10:02:36;;;;;;;11.85;9.10;;;;;;;7.20;47.17;94471.56;1739293;80;21089;-64
2022/01/14 10:05:08;;;;;;;13.15;9.28;;;;;;;7.21;46.75;94472.32;1738810;80;21018;-67
2022/01/14 10:07:35;;;;;;;15.97;10.37;;;;;;;7.20;46.61;94458.48;1730560;80;21105;-69
2022/01/14 10:10:23;;;;;;;13.05;9.43;;;;;;;7.13;46.58;94443.63;1725071;80;22170;-66
2022/01/14 10:12:51;;;;;;;16.37;12.15;;;;;;;7.07;47.02;94448.69;1733768;80;21083;-64
2022/01/14 10:15:18;;;;;;;11.18;8.23;;;;;;;6.89;47.19;94435.47;1706352;82;21147;-64
2022/01/14 10:17:45;;;;;;;9.75;8.45;;;;;;;6.85;47.57;94438.16;1701996;80;21171;-64
2022/01/14 10:20:17;;;;;;;14.80;12.85;;;;;;;6.82;47.29;94434.89;1738428;80;21854;-67
2022/01/14 10:22:47;;;;;;;14.40;11.33;;;;;;;6.83;47.52;94426.86;1726953;80;21114;-62
2022/01/14 10:25:17;;;;;;;14.10;9.68;;;;;;;6.96;47.81;94434.52;1717237;80;21081;-65
2022/01/14 10:27:50;;;;;;;13.03;10.13;;;;;;;7.21;47.11;94434.80;1693534;82;21138;-63
2022/01/14 10:30:28;;;;;;;11.30;9.85;;;;;;;7.36;46.51;94432.43;1712340;81;21739;-66
2022/01/14 10:32:59;;;;;;;8.25;7.17;;;;;;;7.53;46.10;94438.00;1693438;83;21198;-68
2022/01/14 10:35:31;;;;;;;9.88;8.18;;;;;;;7.56;45.91;94436.52;1734292;80;21553;-65
2022/01/14 10:38:14;;;;;;;12.23;9.73;;;;;;;7.73;45.88;94433.11;1723135;80;21153;-67
2022/01/14 10:40:51;;;;;;;12.50;9.50;;;;;;;8.00;45.34;94425.23;1722834;80;25197;-64
2022/01/14 10:43:25;;;;;;;13.22;9.55;;;;;;;8.22;44.79;94428.28;1714060;80;20966;-70
2022/01/14 10:45:51;;;;;;;12.95;9.70;;;;;;;8.54;44.39;94414.33;1697851;81;21505;-62
2022/01/14 10:48:32;;;;;;;10.05;7.95;;;;;;;8.70;43.99;94422.41;1719224;81;21798;-64
2022/01/14 10:51:14;;;;;;;10.38;8.18;;;;;;;8.62;44.24;94412.87;1716272;82;21517;-62
2022/01/14 10:53:53;;;;;;;9.83;8.47;;;;;;;8.63;44.21;94433.59;1706729;82;21158;-66
2022/01/14 10:56:25;;;;;;;9.90;7.05;;;;;;;8.74;44.80;94423.05;1738408;80;21070;-68
2022/01/14 10:58:58;;;;;;;13.47;10.03;;;;;;;8.95;43.64;94418.98;1693822;82;21910;-65
2022/01/14 11:01:28;;;;;;;12.35;9.25;;;;;;;9.38;42.85;94418.23;1702866;82;28082;-64
2022/01/14 11:03:59;;;;;;;14.05;11.18;;;;;;;9.76;41.86;94414.06;1722176;80;20915;-65
2022/01/14 11:06:35;;;;;;;18.37;13.03;;;;;;;9.93;41.37;94402.23;1731777;80;21741;-61
2022/01/14 11:09:08;;;;;;;14.63;10.50;;;;;;;9.95;41.10;94399.83;1728549;80;21003;-64
2022/01/14 11:11:42;;;;;;;13.05;10.55;;;;;;;9.83;41.05;94395.19;1727777;81;20986;-65
2022/01/14 11:14:08;;;;;;;13.50;10.00;;;;;;;9.99;41.40;94384.72;1671143;83;21131;-62
2022/01/14 11:16:36;;;;;;;14.25;11.45;;;;;;;10.22;40.67;94382.88;1664062;84;21014;-63
2022/01/14 11:19:04;;;;;;;15.88;10.82;;;;;;;10.31;40.60;94389.76;1687654;83;21152;-66
2022/01/14 11:24:39;;;;;;;26.25;17.05;;;;;;;10.84;39.18;94391.84;1722943;82;21013;-64
2022/01/14 11:27:08;;;;;;;15.08;11.88;;;;;;;10.61;39.20;94381.27;1704613;82;21610;-64
2022/01/14 11:29:39;;;;;;;17.25;12.80;;;;;;;10.50;39.59;94385.09;1727025;81;21546;-67
2022/01/14 11:32:08;;;;;;;12.75;9.48;;;;;;;10.45;39.95;94378.19;1719659;81;21153;-63
2022/01/14 11:34:43;;;;;;;9.48;7.47;;;;;;;10.60;39.85;94360.48;1686240;83;21095;-64
2022/01/14 11:37:31;;;;;;;11.08;8.33;;;;;;;10.92;39.04;94349.66;1697962;82;21016;-63
2022/01/14 11:40:01;;;;;;;8.88;7.05;;;;;;;11.22;38.63;94348.14;1744739;81;21038;-70
2022/01/14 11:42:58;;;;;;;8.10;6.70;;;;;;;11.45;38.19;94343.36;1735985;81;20979;-64
2022/01/14 11:45:41;;;;;;;7.10;5.65;;;;;;;11.83;37.54;94344.20;1732738;82;21721;-68
2022/01/14 11:48:13;;;;;;;6.05;4.58;;;;;;;12.42;36.03;94332.31;1724885;81;21097;-65
2022/01/14 11:50:46;;;;;;;7.47;6.28;;;;;;;12.77;34.91;94336.82;1709721;81;21073;-63
2022/01/14 11:53:35;;;;;;;8.18;6.20;;;;;;;13.13;35.60;94335.20;1702918;81;21051;-62
2022/01/14 11:56:05;;;;;;;8.08;5.95;;;;;;;13.69;34.58;94327.45;1735491;81;21105;-65
2022/01/14 11:58:38;;;;;;;10.43;6.85;;;;;;;14.36;33.42;94322.38;1717490;82;21140;-60
2022/01/14 12:01:05;;;;;;;8.63;7.25;;;;;;;14.89;32.59;94319.45;1731832;81;21643;-63
2022/01/14 12:03:32;;;;;;;5.53;4.22;;;;;;;15.38;31.45;94318.66;1725573;82;21509;-67